Atlanta Naval Air Station, Georgia
Current Conditions -  °F | °C
As of 7:58 PM on Sunday 21 Dec 2014 (Local Time) from KMGE Reporting Station
Overcast Overcast  
Wind Chill: 44°   Ceiling: 1600
Heat Index: 48°   Visibility: 10mi
Dew Point: 44°   Wind: 9mph
Humidity: 86%   Direction: 80°E
Pressure: 30.09"   Gusts: NA
Location:  33.9252°N, 84.5422°W
Report Text: KMGE 220058Z 08008KT 10SM OVC016 09/07 A3009 RMK AO2A SLP193 T00900067 $
Loading
Personal Weather Stations






























Interactive Weather Map New forecast layout! Learn more

10-Day Weather Forecast

Advertisements
Track Severe Weather on mobile